Tiempo atmosférico en la estación meteorológica de Écija, Sevilla (130 m.)

Fecha
DESCASC
Temp. máxima en grados centígrados (hora)
DESCASC
Temp. mínima en grados centígrados (hora)
DESCASC
Temp. media en grados centígrados
DESCASC
Racha de viento máxima en m/sg (hora)
DESCASC
Velocidad máxima media en intervalos de 10 minutos(hora)
DESCASC
Precipitaciones diarias en mm
DESCASC
Precipitaciones de 00:00 a 06:00 en mm
DESCASC
Precipitaciones de 06:00 a 12:00 en mm
DESCASC
Precipitaciones de 12:00 a 18:00 en mm
DESCASC
Precipitaciones de 18:00 a 24:00 en mm
DESCASC
21-08-2017 36.8 (15:10) 22 (07:30) 29.4 8.89 (16:40) 5.56 (17:10) 0 0 0 0 0
20-08-2017 37.3 (16:40) 22.4 (07:40) 29.8 10 (19:40) 6.39 (19:40) 0 0 0 0 0
19-08-2017 41.1 (17:00) 20.3 (08:10) 30.7 8.89 (21:00) 6.11 (21:50) 0 0 0 0 0
18-08-2017 40.2 (17:50) 20.7 (08:00) 30.5 10.56 (18:40) 5.28 (23:20) 0 0 0 0 0
17-08-2017 39.8 (16:50) 18 (00:00) 28.9 7.78 (23:59) 5.83 (00:20) 0 0 0 0 0
16-08-2017 39 (16:50) 19 (00:00) 29 9.44 (00:50) 6.11 (00:40) 0 0 0 0 0
15-08-2017 37.7 (17:50) 20.7 (00:00) 29.2 10.28 (23:20) 6.39 (23:20) 0 0 0 0 0
14-08-2017 34.1 (17:30) 20.5 (07:30) 27.3 10 (02:50) 6.39 (02:40) 0 0 0 0 0
13-08-2017 34.9 (15:50) 18.3 (00:00) 26.6 10.83 (22:30) 7.78 (23:10) 0 0 0 0 0
12-08-2017 34.3 (16:00) 18.7 (00:00) 26.5 9.72 (17:40) 6.67 (20:30) 0 0 0 0 0
11-08-2017 35.4 (17:50) 19.5 (00:00) 27.5 8.06 (02:10) 5 (02:10) 0 0 0 0 0
10-08-2017 34.8 (18:20) 14.7 (00:00) 24.7 8.61 (10:30) 5.56 (10:40) 0 0 0 0 0
09-08-2017 33.3 (17:00) 15.2 (00:00) 24.2 9.72 (21:20) 5.83 (20:00) 0 0 0 0 0
08-08-2017 36.2 (17:20) 20.6 (00:00) 28.4 8.61 (16:20) 4.72 (01:10) 0 0 0 0 0
07-08-2017 40.1 (17:00) 21.9 (00:00) 31 11.67 (07:10) 6.39 (21:40) 0 0 0 0 0
06-08-2017 41.5 (17:50) 19.5 (00:00) 30.5 11.11 (17:40) 7.5 (23:30) 0 0 0 0 0
05-08-2017 41.6 (17:10) 23.3 (00:00) 32.4 10.83 (20:50) 7.5 (23:50) 0 0 0 0 0
04-08-2017 42.5 (18:30) 18.9 (00:00) 30.7 8.06 (22:30) 5 (22:40) 0 0 0 0 0
03-08-2017 40.6 (20:00) 17.6 (00:00) 29.1 6.67 (22:50) 5 (23:10) 0 0 0 0 0
02-08-2017 37.9 (17:50) 15.7 (00:00) 26.8 8.89 (23:30) 5.83 (23:20) 0 0 0 0 0
01-08-2017 33.1 (17:50) 18.5 (00:00) 25.8 11.11 (00:10) 7.5 (00:10) 0 0 0 0 0
31-07-2017 36.4 (16:50) 18.3 (00:00) 27.4 11.67 (23:20) 8.33 (23:00) 0 0 0 0 0
30-07-2017 39.4 (16:40) 19 (00:00) 29.2 10.28 (22:40) 6.39 (22:40) 0 0 0 0 0
29-07-2017 40.2 (16:30) 17.4 (00:00) 28.8 8.89 (17:40) 6.11 (23:10) 0 0 0 0 0
28-07-2017 40.1 (18:10) 18.9 (00:00) 29.5 9.44 (23:10) 6.11 (22:30) 0 0 0 0 0
27-07-2017 39.1 (17:20) 20.4 (00:00) 29.7 8.89 (17:20) 5 (23:20) 0 0 0 0 0
26-07-2017 36.4 (19:10) 18.2 (00:00) 27.3 10 (15:50) 5.83 (00:20) 0 0 0 0 0
25-07-2017 38.6 (16:40) 18.4 (00:00) 28.5 11.11 (20:40) 7.22 (20:00) 0 0 0 0 0
24-07-2017 38.8 (19:00) 17.3 (00:00) 28 13.61 (15:50) 5.83 (21:30) 0 0 0 0 0
23-07-2017 37.4 (18:20) 16.5 (00:00) 27 10 (21:30) 6.39 (00:50) 0 0 0 0 0

Gráficas

Temp. máximas Temp. mínimas Temp. medias Precipitaciones Rachas de viento máximas Velocidades máximas media en intervalos de 10 minutos

Datos horarios

Fecha y hora oficial Temperatura (ºC) Velocidad del viento (km/h) Dirección del viento Racha (km/h) Dirección de racha Precipitación (mm) Presión (hPa) Tendencia (hPa) Humedad (%)
2017-08-21 23:00:00 27 13 Sur 24 Sudoeste 0 1000.3 2.2 49
2017-08-21 22:00:00 28.7 17 Sudoeste 30 Sur 0 999.3 1.2 45
2017-08-21 21:00:00 30.9 19 Sudoeste 29 Sur 0 998.5 0.3 40
2017-08-21 20:00:00 33.4 19 Sur 30 Sur 0 998.1 -0.5 39
2017-08-21 19:00:00 35.2 18 Sur 27 Sur 0 998.1 -1.1 38
2017-08-21 18:00:00 35.8 14 Sur 31 Sudeste 0 998.2 -1.6 38
2017-08-21 17:00:00 36.2 17 Sur 32 Sur 0 998.6 -1.9 38
2017-08-21 16:00:00 36.3 16 Sudeste 26 Sudeste 0 999.2 -1.9 39
2017-08-21 15:00:00 36.4 9 Sur 26 Sudeste 0 999.8 -2 40
2017-08-21 14:00:00 34.1 16 Sur 31 Sur 0 1000.5 -1.6 43
2017-08-21 13:00:00 33.5 13 Sur 23 Sur 0 1001.1 -1.1 48
2017-08-21 12:00:00 31.4 9 Sudeste 16 Sudeste 0 1001.8 -0.4 55
2017-08-21 11:00:00 29.9 3 Sudeste 10 Sudeste 0 1002.1 0.3 61
2017-08-21 10:00:00 27.5 3 Sudeste 8 Sur 0 1002.2 0.8 71
2017-08-21 09:00:00 24.6 3 Noroeste 4 Noroeste 0 1002.2 0.6 78
2017-08-21 08:00:00 22.2 0 Calma 4 Sudeste 0 1001.8 0.1 82
2017-08-21 07:00:00 22.6 5 Sudeste 15 Sur 0 1001.4 -0.8 82
2017-08-21 06:00:00 23.7 10 Sur 15 Sur 0 1001.6 -0.4 78
2017-08-21 05:00:00 24.3 10 Sur 19 Sudoeste 0 1001.7 -0.1 76
2017-08-21 04:00:00 24.8 9 Sudoeste 17 Sur 0 1002.2 0.7 74
2017-08-21 03:00:00 25 12 Sur 23 Sur 0 1002 0.8 71
2017-08-21 02:00:00 25.5 16 Sur 27 Sur 0 1001.8 1 68
2017-08-21 01:00:00 26.4 18 Sur 31 Sur 0 1001.5 1.8 64
2017-08-21 00:00:00 27.1 16 Sur 26 Sudoeste 0 1001.2 2.2 62
2017-08-20 23:00:00 28 19 Sur 31 Sur 0 1000.8 2.2 59
2017-08-20 22:00:00 28.7 10 Sur 30 Sudoeste 0 999.7 0.9 54
2017-08-20 21:00:00 30.5 19 Sur 31 Sur 0 999 -0.1 48
2017-08-20 20:00:00 32.9 17 Sur 36 Sur 0 998.6 -1 44
2017-08-20 19:00:00 35 21 Sur 34 Sur 0 998.8 -1.3 41
2017-08-20 18:00:00 36.1 20 Sur 31 Sur 0 999.1 -1.5 40
2017-08-20 17:00:00 36.8 14 Sudeste 27 Sudeste 0 999.6 -1.2 40
2017-08-20 16:00:00 36.5 18 Sur 34 Sudoeste 0 1000.1 -1.3 38
2017-08-20 15:00:00 36.3 19 Sur 33 Sudeste 0 1000.6 -1.4 41
2017-08-20 14:00:00 35.9 13 Sudeste 27 Sur 0 1000.8 -1.4 43
2017-08-20 13:00:00 33.8 6 Sudeste 18 Este 0 1001.4 -0.8 49
2017-08-20 12:00:00 31.2 9 Sudeste 15 Sudeste 0 1002 0.1 57
2017-08-20 11:00:00 29.3 5 Este 12 Este 0 1002.2 0.6 64
2017-08-20 10:00:00 27.2 5 Nordeste 11 Norte 0 1002.2 1.3 69
2017-08-20 09:00:00 25.2 7 Norte 14 Noroeste 0 1001.9 1.1 75
2017-08-20 08:00:00 22.5 0 Calma 14 Sur 0 1001.6 0.8 80
2017-08-20 07:00:00 24.2 13 Sur 25 Sudoeste 0 1000.9 0.4 77
2017-08-20 06:00:00 24.8 14 Sudoeste 21 Sur 0 1000.8 0.5 76
2017-08-20 05:00:00 24.7 10 Sur 24 Sur 0 1000.8 0.1 76
2017-08-20 04:00:00 25.6 16 Sudoeste 26 Sur 0 1000.5 -0.2 71
2017-08-20 03:00:00 26 13 Sudoeste 20 Sudoeste 0 1000.3 -0.1 59
2017-08-20 02:00:00 26.2 13 Sudoeste 16 Sudoeste 0 1000.7 1 57
2017-08-20 01:00:00 27.1 5 Sur 22 Oeste 0 1000.7 2 55
2017-08-20 00:00:00 28.7 13 Oeste 24 Sudoeste 0 1000.4 2.7 52
2017-08-19 23:00:00 30.6 13 Sudoeste 24 Oeste 0 999.7 2.4 49
2017-08-19 22:00:00 32.4 19 Sudoeste 32 Sudoeste 0 998.7 1.7 44
2017-08-19 21:00:00 35.5 20 Oeste 32 Oeste 0 997.7 0.4 38
2017-08-19 20:00:00 38.8 13 Oeste 28 Sudoeste 0 997.3 -0.2 32
2017-08-19 19:00:00 40.4 10 Oeste 23 Oeste 0 997 -1.1 29
2017-08-19 18:00:00 40.6 5 Oeste 26 Sudoeste 0 997.3 -1.4 30
2017-08-19 17:00:00 40.5 10 Noroeste 23 Sudoeste 0 997.5 -1.6 30
2017-08-19 16:00:00 39.9 5 Norte 18 Oeste 0 998.1 -1.6 33
2017-08-19 15:00:00 39 0 Calma 16 Oeste 0 998.7 -1.4 36
2017-08-19 14:00:00 36.9 3 Este 12 Sur 0 999.1 -1.2 41
2017-08-19 13:00:00 34.9 3 Sudeste 8 Nordeste 0 999.7 -0.4 45
2017-08-19 12:00:00 32.1 0 Calma 10 Nordeste 0 1000.1 0 50
2017-08-19 11:00:00 28.8 0 Calma 5 Sudeste 0 1000.3 0.6 58
2017-08-19 10:00:00 26.9 3 Sudeste 7 Sudeste 0 1000.1 0.7 61
2017-08-19 09:00:00 22.4 5 Sur 6 Sur 0 1000.1 0.8 69
2017-08-19 08:00:00 20.6 4 Sudeste 7 Sur 0 999.7 0.5 67
2017-08-19 07:00:00 21.5 3 Sur 5 Sur 0 999.4 0.3 63
2017-08-19 06:00:00 22.4 3 Sur 7 Sur 0 999.3 -0.2 62
2017-08-19 05:00:00 23.5 0 Calma 7 Sudeste 0 999.2 -0.2 58
2017-08-19 04:00:00 24.9 5 Sudoeste 19 Sudoeste 0 999.1 0 53
2017-08-19 03:00:00 26.5 10 Oeste 19 Oeste 0 999.5 0.2 50
2017-08-19 02:00:00 28.2 2 Oeste 28 Sudoeste 0 999.4 0.5 49
2017-08-19 01:00:00 28.8 10 Sudoeste 19 Sudoeste 0 999.1 0.9 47
2017-08-19 00:00:00 29.6 13 Sudoeste 27 Sudoeste 0 999.3 1.8 45
2017-08-18 23:00:00 30.9 15 Sudoeste 27 Oeste 0 998.9 1.6 43
2017-08-18 22:00:00 33.6 18 Oeste 28 Oeste 0 998.2 0.8 38
2017-08-18 21:00:00 35.4 12 Oeste 18 Oeste 0 997.5 -0.1 33
2017-08-18 20:00:00 38 12 Noroeste 23 Noroeste 0 997.3 -0.7 32
2017-08-18 19:00:00 39.1 10 Noroeste 38 Nordeste 0 997.4 -1.4 32
2017-08-18 18:00:00 39.7 8 Noroeste 21 Noroeste 0 997.6 -2 31
2017-08-18 17:00:00 39.8 8 Oeste 18 Oeste 0 998 -2.3 32
2017-08-18 16:00:00 38.7 6 Este 14 Nordeste 0 998.8 -2.3 35
2017-08-18 15:00:00 37.8 3 Sur 11 Sudeste 0 999.6 -1.9 36
2017-08-18 14:00:00 35.7 0 Calma 10 Sudoeste 0 1000.3 -1.7 42
2017-08-18 13:00:00 34.2 3 Sudeste 11 Sudeste 0 1001.1 -0.9 49
2017-08-18 12:00:00 31.9 4 Sur 9 Sur 0 1001.5 -0.3 55
2017-08-18 11:00:00 29.8 0 Calma 9 Nordeste 0 1002 0.7 60
2017-08-18 10:00:00 27.1 3 Este 5 Este 0 1002 1 67
2017-08-18 09:00:00 23.1 2 Sudeste 7 Sudeste 0 1001.8 1 78
2017-08-18 08:00:00 20.8 4 Sur 6 Sudeste 0 1001.3 0.3 82
2017-08-18 07:00:00 21.4 0 Calma 8 Sudeste 0 1001 0 76
2017-08-18 06:00:00 22.9 3 Noroeste 8 Noroeste 0 1000.8 -0.5 74
2017-08-18 05:00:00 24.1 0 Calma 19 Sudoeste 0 1001 -0.6 74
2017-08-18 04:00:00 25.1 11 Oeste 23 Oeste 0 1001 -0.3 72
2017-08-18 03:00:00 25.6 16 Sudoeste 23 Sudoeste 0 1001.3 0.3 65
2017-08-18 02:00:00 27.1 12 Sudoeste 27 Sudoeste 0 1001.6 1.2 58
2017-08-18 01:00:00 28.2 14 Sudoeste 28 Sudoeste 0 1001.3 2 55
2017-08-18 00:00:00 29.7 18 Sudoeste 28 Sudoeste 0 1001 2.1 50
2017-08-17 23:00:00 31.1 15 Sudoeste 26 Sur 0 1000.4 1.7 42
2017-08-17 22:00:00 33 13 Oeste 20 Oeste 0 999.3 0.5 30
2017-08-17 21:00:00 35.5 12 Oeste 23 Oeste 0 998.9 -0.4 28
2017-08-17 20:00:00 38.3 12 Oeste 24 Oeste 0 998.7 -0.8 28
2017-08-17 19:00:00 39.1 5 Oeste 19 Sudoeste 0 998.8 -1.5 28
2017-08-17 18:00:00 39.5 5 Oeste 27 Noroeste 0 999.3 -1.5 28
2017-08-17 17:00:00 39.4 7 Oeste 24 Oeste 0 999.5 -2 28
2017-08-17 16:00:00 39 9 Oeste 22 Sudoeste 0 1000.3 -1.8 31
2017-08-17 15:00:00 38.5 2 Sudoeste 17 Oeste 0 1000.8 -1.7 33
2017-08-17 14:00:00 36.4 5 Sudeste 15 Sur 0 1001.5 -1 38
2017-08-17 13:00:00 34.8 5 Sur 12 Sur 0 1002.1 -0.6 41
2017-08-17 12:00:00 32.3 5 Este 12 Nordeste 0 1002.5 0.2 44
2017-08-17 11:00:00 28.8 3 Este 8 Sudeste 0 1002.5 0.3 47
2017-08-17 10:00:00 25 0 Calma 5 Sudeste 0 1002.7 1.1 49
2017-08-17 09:00:00 21.7 3 Sudeste 5 Sur 0 1002.3 0.8 55
2017-08-17 08:00:00 18.1 3 Sudeste 7 Sur 0 1002.2 0.7 54
2017-08-17 07:00:00 18.1 4 Sur 6 Sur 0 1001.6 0.2 52
2017-08-17 06:00:00 19.7 4 Sur 6 Sur 0 1001.5 -0.2 49
2017-08-17 05:00:00 20.7 4 Sur 8 Sur 0 1001.5 -0.4 48
2017-08-17 04:00:00 22 3 Sudoeste 7 Sudeste 0 1001.4 -0.3 45
2017-08-17 03:00:00 22 6 Sudeste 8 Sudeste 0 1001.7 0.1 45
2017-08-17 02:00:00 24.8 4 Sur 13 Sudeste 0 1001.9 0.4 41
2017-08-17 01:00:00 26.4 5 Sudeste -- -- -- 1001.7 0.8 38
2017-08-17 00:00:00 28.4 21 Sudoeste 28 Sudoeste 0 1001.6 1.4 35
2017-08-16 23:00:00 30 18 Sudoeste 26 Oeste 0 1001.5 1.3 31
2017-08-16 22:00:00 32.1 15 Oeste 23 Oeste 0 1000.9 0.6 30
2017-08-16 21:00:00 33.9 8 Oeste 19 Oeste 0 1000.2 -0.3 25
2017-08-16 20:00:00 37.6 12 Oeste 25 Oeste 0 1000.2 -0.7 24
2017-08-16 19:00:00 37.7 15 Noroeste 30 Oeste 0 1000.3 -1 25
2017-08-16 18:00:00 38.4 12 Oeste 27 Oeste 0 1000.5 -1.3 26
2017-08-16 17:00:00 38.6 13 Oeste 27 Sudoeste 0 1000.9 -1.8 26
2017-08-16 16:00:00 38.2 10 Oeste 24 Oeste 0 1001.3 -2.1 27
2017-08-16 15:00:00 37.6 7 Sudoeste 20 Sudoeste 0 1001.8 -2.2 30
2017-08-16 14:00:00 34.9 4 Sudeste 10 Sur 0 1002.7 -1.4 36
2017-08-16 13:00:00 33.3 2 Nordeste 12 Este 0 1003.4 -0.8 38
2017-08-16 12:00:00 31 2 Este 8 Nordeste 0 1004 -0.1 44
2017-08-16 11:00:00 28.2 4 Este 9 Nordeste 0 1004.1 0.6 47
2017-08-16 10:00:00 24.9 0 Calma 6 Sudeste 0 1004.2 0.9 62
2017-08-16 09:00:00 20.9 2 Este 3 Este 0 1004.1 1.1 67
2017-08-16 08:00:00 19.3 0 Calma 4 Sur 0 1003.5 0.7 71
2017-08-16 07:00:00 19.6 0 Calma 4 Sur 0 1003.3 0.4 68
2017-08-16 06:00:00 20 2 Sur 8 Sudeste 0 1003 0.2 67
2017-08-16 05:00:00 21.4 3 Sudeste 13 Este 0 1002.8 0 64
2017-08-16 04:00:00 22.3 4 Sudeste 9 Sudeste 0 1002.9 0.4 61
2017-08-16 03:00:00 24 3 Sudoeste 18 Oeste 0 1002.8 0.4 57
2017-08-16 02:00:00 25.3 2 Nordeste 14 Sudoeste 0 1002.8 1.1 50
2017-08-16 01:00:00 26.5 8 Sudoeste 34 Sudoeste 0 1002.5 1.7 48
2017-08-16 00:00:00 27.8 17 Oeste 37 Oeste 0 1002.4 2.5 45
2017-08-15 23:00:00 29.7 18 Oeste 32 Sudoeste 0 1001.7 2.5 42
2017-08-15 22:00:00 31.7 18 Oeste 33 Oeste 0 1000.8 1.7 44
2017-08-15 21:00:00 34.9 15 Oeste 30 Oeste 0 999.9 0.3 38
2017-08-15 20:00:00 36.9 10 Oeste 20 Sudoeste 0 999.2 -0.7 34
2017-08-15 19:00:00 37.2 10 Sudoeste 20 Sudoeste 0 999.1 -1.4 35
2017-08-15 18:00:00 37 3 Noroeste 20 Oeste 0 999.6 -1.3 36
2017-08-15 17:00:00 36.9 9 Oeste 22 Noroeste 0 999.9 -1.6 38
2017-08-15 16:00:00 36 2 Este 19 Sudoeste 0 1000.5 -1.7 41
2017-08-15 15:00:00 34.6 6 Sur 14 Sur 0 1000.9 -1.8 44
2017-08-15 14:00:00 33.7 2 Sudoeste 15 Sudoeste 0 1001.5 -1.3 47
2017-08-15 13:00:00 31.7 5 Oeste 17 Sudoeste 0 1002.2 -0.3 51
2017-08-15 12:00:00 30.2 3 Sudoeste 13 Noroeste 0 1002.7 0.2 61
2017-08-15 11:00:00 27.6 3 Sur 11 Sur 0 1002.8 0.9 70
2017-08-15 10:00:00 25.3 6 Sudeste 10 Sudeste 0 1002.5 0.9 80
2017-08-15 09:00:00 23 3 Sudeste 5 Sur 0 1002.5 1.3 88
2017-08-15 08:00:00 20.8 4 Sudeste 6 Sudeste 0 1001.9 0.9 88
2017-08-15 07:00:00 21.2 0 Calma 6 Sudeste 0 1001.6 0.7 84
2017-08-15 06:00:00 21.9 2 Sur 6 Sudeste 0 1001.2 0.1 83
2017-08-15 05:00:00 22.6 6 Sudoeste 8 Sudoeste 0 1001 -0.1 81
2017-08-15 04:00:00 23.2 4 Sudoeste 11 Sudoeste 0 1000.9 0.2 79
2017-08-15 03:00:00 23.9 8 Sudoeste 24 Sudoeste 0 1001.1 0.8 75
2017-08-15 02:00:00 25.2 17 Sudoeste 25 Sudoeste 0 1001.1 1.8 70
2017-08-15 01:00:00 26.1 13 Sudoeste 27 Sudoeste 0 1000.7 2.6 64
2017-08-15 00:00:00 27.4 15 Sudoeste 30 Sudoeste 0 1000.3 2.9 58
2017-08-14 23:00:00 27.9 20 Sudoeste 28 Sudoeste 0 999.3 2.5 52
2017-08-14 22:00:00 28.9 12 Sudoeste 21 Sur 0 998.1 1.5 47
2017-08-14 21:00:00 31.3 17 Sur 26 Sur 0 997.4 0.3 43
2017-08-14 20:00:00 32.8 17 Sur 24 Sur 0 996.8 -0.5 42
2017-08-14 19:00:00 33.8 13 Sur 27 Sudeste 0 996.6 -1.2 42
2017-08-14 18:00:00 33.7 14 Sudeste 29 Sur 0 997.1 -1.2 42
2017-08-14 17:00:00 33.7 14 Sur 32 Sudeste 0 997.3 -1.7 42
2017-08-14 16:00:00 32.9 15 Sur 31 Sur 0 997.8 -1.6 45
2017-08-14 15:00:00 32.5 15 Sur 28 Sur 0 998.3 -1.4 46
2017-08-14 14:00:00 31.3 13 Sur 28 Sudeste 0 999 -0.7 49
2017-08-14 13:00:00 31.2 3 Sudeste 16 Sudeste 0 999.4 -0.3 52
2017-08-14 12:00:00 29.3 5 Sudeste 14 Sur 0 999.7 0 59
2017-08-14 11:00:00 27.6 5 Este 11 Sudeste 0 999.7 0.5 64
2017-08-14 10:00:00 25.5 4 Sudeste 12 Este 0 999.7 0.8 74
2017-08-14 09:00:00 22.5 4 Sudeste 7 Sudeste 0 999.7 0.9 80
2017-08-14 08:00:00 20.8 0 Calma 4 Sur 0 999.2 0 82
2017-08-14 07:00:00 21.3 0 Calma 5 Nordeste 0 998.9 -0.6 80
2017-08-14 06:00:00 21.3 2 Sudeste 17 Sur 0 998.8 -0.9 81
2017-08-14 05:00:00 22.8 12 Sur 21 Sur 0 999.2 -0.8 75
2017-08-14 04:00:00 23.3 13 Sur 28 Sur 0 999.5 -0.1 73
2017-08-14 03:00:00 23.8 18 Sudoeste 36 Sudoeste 0 999.7 0.2 67
2017-08-14 02:00:00 24.3 16 Sudoeste 28 Sudoeste 0 1000 1.1 60
2017-08-14 01:00:00 23.9 11 Sudeste 30 Sur 0 999.6 1.3 60
2017-08-14 00:00:00 25.4 22 Sudoeste 39 Sudoeste 0 999.5 2 56
2017-08-13 23:00:00 25.9 28 Sudoeste 39 Sur 0 998.9 1.7 55
2017-08-13 22:00:00 26.8 24 Sur 39 Sur 0 998.3 1.1 54
2017-08-13 21:00:00 28.4 24 Sur 38 Sur 0 997.5 -0.1 47
2017-08-13 20:00:00 30.8 22 Sur 35 Sur 0 997.2 -0.4 40
2017-08-13 19:00:00 32.7 18 Sur 29 Sur 0 997.2 -0.9 38
2017-08-13 18:00:00 33 22 Sur 32 Sur 0 997.6 -1.2 38
2017-08-13 17:00:00 34.2 18 Sudoeste 34 Sur 0 997.6 -1.9 38
2017-08-13 16:00:00 34.5 12 Sur 24 Sudeste 0 998.1 -2.3 39
2017-08-13 15:00:00 33.4 13 Sudeste 22 Sudoeste 0 998.8 -2.1 42
2017-08-13 14:00:00 32.7 10 Sudeste 25 Sudeste 0 999.5 -1.6 44
2017-08-13 13:00:00 31.3 9 Sudeste 24 Sudeste 0 1000.4 -1 46
2017-08-13 12:00:00 29.7 12 Sudeste 24 Este 0 1000.9 -0.4 52
2017-08-13 11:00:00 27.9 5 Sur 12 Sudeste 0 1001.1 0 61
2017-08-13 10:00:00 24.6 9 Sudeste 13 Sudeste 0 1001.4 0.6 70
2017-08-13 09:00:00 21.7 0 Calma 5 Sudeste 0 1001.3 0.6 72
2017-08-13 08:00:00 18.7 3 Sudeste 9 Sudeste 0 1001.1 0 80
2017-08-13 07:00:00 20.2 4 Sudeste 18 Sur 0 1000.8 -0.4 78
2017-08-13 06:00:00 21.8 12 Sur 26 Sur 0 1000.7 -0.8 71
2017-08-13 05:00:00 22.6 17 Sur 31 Sur 0 1001.1 -0.6 67
2017-08-13 04:00:00 23.2 17 Sur 31 Sur 0 1001.2 -0.5 62
2017-08-13 03:00:00 23 13 Sudoeste 21 Sur 0 1001.5 0 58
2017-08-13 02:00:00 22.8 11 Sur 22 Sur 0 1001.7 0.4 48
2017-08-13 01:00:00 23.4 7 Sur 24 Sudoeste 0 1001.7 0.9 49
2017-08-13 00:00:00 25 17 Sudoeste 29 Sur 0 1001.5 1 49
2017-08-12 23:00:00 25.8 20 Sudoeste 27 Sur 0 1001.3 0.8 47
2017-08-12 22:00:00 26.5 22 Sudoeste -- -- -- 1000.8 0.2 45
2017-08-12 21:00:00 28 20 Sur 33 Sur 0 1000.5 -0.4 42
2017-08-12 20:00:00 30.5 20 Sur 33 Sur 0 1000.5 -0.5 38
2017-08-12 19:00:00 31.6 19 Sur 31 Sur 0 1000.6 -0.8 38
2017-08-12 18:00:00 32.5 21 Sur 35 Sur 0 1000.9 -0.9 36
2017-08-12 17:00:00 33.4 20 Sur 32 Sudeste 0 1001 -1.6 35
2017-08-12 16:00:00 33.7 13 Sur 30 Sudeste 0 1001.4 -1.6 38
2017-08-12 15:00:00 33.6 9 Sudeste 26 Sudeste 0 1001.8 -1.6 42
2017-08-12 14:00:00 31.8 15 Sudeste 31 Sudeste 0 1002.6 -0.8 46
2017-08-12 13:00:00 30.6 17 Sudeste 34 Este 0 1003 -0.8 46
2017-08-12 12:00:00 29.6 16 Sudeste 29 Este 0 1003.4 -0.2 51
2017-08-12 11:00:00 28.4 7 Sudeste 17 Este 0 1003.4 0.4 56
2017-08-12 10:00:00 25.8 2 Este 8 Este 0 1003.8 1.1 61
2017-08-12 09:00:00 21.9 2 Este 4 Sudeste 0 1003.6 1.1 66
2017-08-12 08:00:00 18.8 5 Sudeste 7 Sudeste 0 1003 0.5 70
2017-08-12 07:00:00 19.5 3 Sudeste 6 Sur 0 1002.7 0.1 66
2017-08-12 06:00:00 19.5 5 Sur 11 Sur 0 1002.5 -0.2 65
2017-08-12 05:00:00 21.9 7 Sur 16 Sur 0 1002.5 -0.4 55
2017-08-12 04:00:00 22.1 9 Sur 21 Sudoeste 0 1002.6 0.4 52
2017-08-12 03:00:00 23.4 13 Sudoeste 19 Sudoeste 0 1002.7 0.6 50
2017-08-12 02:00:00 23.4 10 Sur 17 Sudoeste 0 1002.9 1.4 53
2017-08-12 01:00:00 24.2 9 Sur 27 Sudoeste 0 1002.2 1.7 51
2017-08-12 00:00:00 25 13 Sur 25 Sudoeste 0 1002.1 2.4 49
2017-08-11 23:00:00 27 18 Sudoeste 25 Sudoeste 0 1001.5 2 45
2017-08-11 22:00:00 28.3 15 Sudoeste 21 Sur 0 1000.5 0.8 45
2017-08-11 21:00:00 30.2 14 Sur 22 Sur 0 999.7 -0.5 44
2017-08-11 20:00:00 32.8 7 Sur 14 Sudeste 0 999.5 -1.4 43
2017-08-11 19:00:00 34.7 2 Sudeste 18 Sudoeste 0 999.7 -1.9 38
2017-08-11 18:00:00 34.3 9 Sur 19 Sur 0 1000.2 -2.1 41
2017-08-11 17:00:00 34.2 5 Sur 21 Este 0 1000.9 -1.9 44
2017-08-11 16:00:00 33.6 6 Este 23 Sudeste 0 1001.6 -1.9 44
2017-08-11 15:00:00 32.5 8 Sudeste 24 Sudeste 0 1002.3 -1.9 49
2017-08-11 14:00:00 31.6 4 Este 24 Sudeste 0 1002.8 -1.4 52
2017-08-11 13:00:00 30.2 9 Sudeste 24 Este 0 1003.5 -0.8 58
2017-08-11 12:00:00 28.6 11 Sudeste 25 Sudeste 0 1004.2 -0.1 63
2017-08-11 11:00:00 27.1 14 Este 21 Este 0 1004.2 0.4 67
2017-08-11 10:00:00 24.8 6 Este 12 Este 0 1004.3 0.7 77
2017-08-11 09:00:00 22.2 4 Sudeste 6 Sudeste 0 1004.3 0.7 82
2017-08-11 08:00:00 20.2 4 Noroeste 8 Noroeste 0 1003.8 0 85
2017-08-11 07:00:00 20 7 Noroeste 8 Noroeste 0 1003.6 -0.3 86
2017-08-11 06:00:00 19.5 0 Calma 15 Sur 0 1003.6 -0.4 89
2017-08-11 05:00:00 21.1 7 Sur 14 Sur 0 1003.8 -0.4 88
2017-08-11 04:00:00 21.4 9 Sur 18 Sudoeste 0 1003.9 -0.4 86
2017-08-11 03:00:00 22.7 15 Sudoeste 29 Sur 0 1004 0.3 79
2017-08-11 02:00:00 23.2 16 Sur 25 Sur 0 1004.2 1.5 77
2017-08-11 01:00:00 23.6 13 Sur 24 Sur 0 1004.3 2.5 74
2017-08-11 00:00:00 23.8 7 Sur 18 Sudoeste 0 1003.7 2.2 70
2017-08-10 23:00:00 25.1 12 Sur 23 Sudoeste 0 1002.7 1.6 65
2017-08-10 22:00:00 26.7 17 Sudoeste 27 Sudoeste 0 1001.8 0.6 59
2017-08-10 21:00:00 28.7 19 Sur 28 Sudoeste 0 1001.5 0 54
2017-08-10 20:00:00 30.9 17 Sur 27 Sur 0 1001.1 -0.5 50
2017-08-10 19:00:00 34 2 Sudeste 13 Sudoeste 0 1001.2 -0.9 38
2017-08-10 18:00:00 33.8 3 Este 15 Este 0 1001.5 -1.3 40
2017-08-10 17:00:00 33.1 5 Este 19 Este 0 1001.6 -2 44
2017-08-10 16:00:00 33.5 3 Sudeste 24 Este 0 1002.1 -1.8 40
2017-08-10 15:00:00 32.4 7 Nordeste 22 Sudeste 0 1002.8 -1 43
2017-08-10 14:00:00 30.6 12 Sudeste 26 Nordeste 0 1003.6 -0.1 50
2017-08-10 13:00:00 30 8 Nordeste 24 Este 0 1003.9 0.5 47
2017-08-10 12:00:00 27.6 13 Este 25 Este 0 1003.8 0.6 51
2017-08-10 11:00:00 25.8 18 Este 31 Este 0 1003.7 1 53
2017-08-10 10:00:00 23.6 7 Este 12 Norte 0 1003.4 1.4 61
2017-08-10 09:00:00 18.7 3 Noroeste 5 Noroeste 0 1003.2 1.6 70
2017-08-10 08:00:00 14.9 0 Calma 5 Sudeste 0 1002.7 1.3 78
2017-08-10 07:00:00 14.7 0 Calma 8 Sudoeste 0 1002 1.1 76
2017-08-10 06:00:00 15.9 2 Sur 6 Sur 0 1001.6 0.7 71
2017-08-10 05:00:00 17.4 0 Calma 7 Sur 0 1001.4 0.4 67
2017-08-10 04:00:00 17.9 2 Sur 6 Sudeste 0 1000.9 0.4 64
2017-08-10 03:00:00 18.7 0 Calma 8 Oeste 0 1000.9 0.9 63
2017-08-10 02:00:00 20.7 5 Oeste 20 Sudoeste 0 1001 1.3 57
2017-08-10 01:00:00 22.3 13 Sudoeste 24 Oeste 0 1000.5 1.5 57
2017-08-10 00:00:00 23.4 17 Oeste 34 Oeste 0 1000 1.7 55
2017-08-09 23:00:00 24.7 16 Oeste 30 Oeste 0 999.7 2.3 51
2017-08-09 22:00:00 26.5 14 Oeste 35 Oeste 0 999 1.4 45
2017-08-09 21:00:00 29 19 Oeste 31 Sudoeste 0 998.3 0.3 41
2017-08-09 20:00:00 31.5 21 Oeste 32 Oeste 0 997.4 -1.1 33
2017-08-09 19:00:00 32 18 Sudoeste 33 Oeste 0 997.6 -1.4 32
2017-08-09 18:00:00 32.3 17 Sudoeste 35 Sudoeste 0 998 -1.5 32
2017-08-09 17:00:00 33 17 Oeste 31 Sudoeste 0 998.5 -1.5 32
2017-08-09 16:00:00 32.8 11 Oeste 31 Oeste 0 999 -1.2 33
2017-08-09 15:00:00 31.7 15 Oeste 32 Oeste 0 999.5 -0.8 37
2017-08-09 14:00:00 31.1 12 Oeste 29 Oeste 0 1000 -0.4 40
2017-08-09 13:00:00 29.8 14 Oeste 26 Oeste 0 1000.2 -0.1 42
2017-08-09 12:00:00 28 7 Sudoeste 18 Oeste 0 1000.3 -0.1 45
2017-08-09 11:00:00 26.7 0 Calma 7 Sudeste 0 1000.4 0.2 49
2017-08-09 10:00:00 23 3 Este 9 Sudeste 0 1000.3 0.6 55
2017-08-09 09:00:00 18.4 6 Sudeste 8 Sudeste 0 1000.4 1.1 62
2017-08-09 08:00:00 16.2 0 Calma 7 Sudeste 0 1000.2 1 62
2017-08-09 07:00:00 16.6 5 Sudeste 17 Oeste 0 999.7 0.6 59
2017-08-09 06:00:00 20.1 11 Oeste 20 Oeste 0 999.3 0 50
2017-08-09 05:00:00 20.7 12 Oeste 21 Oeste 0 999.2 0 48
2017-08-09 04:00:00 21.6 12 Oeste 21 Oeste 0 999.1 0.1 48
2017-08-09 03:00:00 21.5 3 Norte 9 Sudoeste 0 999.3 0.3 48
2017-08-09 02:00:00 22.5 2 Norte 17 Sudoeste 0 999.2 0.3 44
2017-08-09 01:00:00 23.5 7 Sudoeste 17 Oeste 0 999 0.9 43
2017-08-09 00:00:00 25.9 12 Oeste 19 Oeste 0 999 1.5 30
2017-08-08 23:00:00 26.8 11 Noroeste 21 Oeste 0 998.9 1.7 29
2017-08-08 22:00:00 29 9 Norte 22 Norte 0 998.1 0.7 29
2017-08-08 21:00:00 32.5 14 Noroeste 23 Noroeste 0 997.5 -0.1 28
2017-08-08 20:00:00 34.7 14 Noroeste 26 Noroeste 0 997.2 -0.8 27
2017-08-08 19:00:00 35.3 15 Noroeste 27 Oeste 0 997.4 -1.2 27
2017-08-08 18:00:00 35.8 15 Oeste 30 Noroeste 0 997.6 -1.3 29
2017-08-08 17:00:00 35.1 9 Noroeste 31 Oeste 0 998 -1.6 30
2017-08-08 16:00:00 34.2 13 Noroeste 27 Noroeste 0 998.6 -1.6 31
2017-08-08 15:00:00 33.9 5 Noroeste 21 Noroeste 0 998.9 -1.5 32
2017-08-08 14:00:00 32.6 6 Noroeste 21 Noroeste 0 999.6 -0.6 35
2017-08-08 13:00:00 30.7 10 Norte 23 Noroeste 0 1000.2 0.3 37
2017-08-08 12:00:00 28.3 8 Norte 20 Noroeste 0 1000.4 0.5 41
2017-08-08 11:00:00 26.6 7 Norte 22 Noroeste 0 1000.2 1.2 45
2017-08-08 10:00:00 23.2 14 Norte 23 Norte 0 999.9 1.3 49
2017-08-08 09:00:00 21.8 13 Norte 22 Norte 0 999.9 1.6 49
2017-08-08 08:00:00 20.8 10 Norte 17 Norte 0 999 0.7 46
2017-08-08 07:00:00 21.9 11 Noroeste 14 Noroeste 0 998.6 0.4 43
2017-08-08 06:00:00 22.2 9 Noroeste 12 Noroeste 0 998.3 -0.1 44
2017-08-08 05:00:00 22.8 0 Calma 12 Sudoeste 0 998.3 0.3 45
2017-08-08 04:00:00 23.9 7 Oeste 17 Oeste 0 998.2 0.1 41
2017-08-08 03:00:00 25.7 8 Oeste 25 Sudoeste 0 998.4 0.4 39
2017-08-08 02:00:00 26.3 14 Oeste 26 Oeste 0 998 0.5 39
2017-08-08 01:00:00 27 14 Sudoeste 21 Sudoeste 0 998.1 1.3 40
2017-08-08 00:00:00 28.5 14 Sudoeste 30 Oeste 0 998 1.7 37
2017-08-07 23:00:00 31.3 22 Sudoeste 31 Sudoeste 0 997.5 1.6 35
2017-08-07 22:00:00 33 22 Sudoeste 35 Sudoeste 0 996.8 0.7 35
2017-08-07 21:00:00 35.8 14 Oeste 37 Oeste 0 996.3 -0.1 28
2017-08-07 20:00:00 37.4 23 Sudoeste 37 Sudoeste 0 995.9 -0.9 32
2017-08-07 19:00:00 39.4 19 Oeste 37 Sudoeste 0 996.1 -1.2 27
2017-08-07 18:00:00 39.6 16 Sudoeste 32 Oeste 0 996.4 -1.3 30
2017-08-07 17:00:00 40.1 15 Oeste 31 Oeste 0 996.8 -1.3 30
2017-08-07 16:00:00 38.9 13 Noroeste 29 Sudoeste 0 997.3 -1.3 32
2017-08-07 15:00:00 38.3 12 Noroeste 24 Oeste 0 997.7 -1.4 33
2017-08-07 14:00:00 37.2 8 Sudoeste 19 Oeste 0 998.1 -1 35
2017-08-07 13:00:00 35.6 0 Calma 12 Oeste 0 998.6 -1.2 38
2017-08-07 12:00:00 33.4 3 Sudeste 17 Sudeste 0 999.1 -0.9 44
2017-08-07 11:00:00 29.4 9 Sudeste 15 Sudeste 0 999.1 -0.1 48
2017-08-07 10:00:00 27.8 5 Sudeste 8 Sudeste 0 999.8 2.1 49
2017-08-07 09:00:00 24.4 0 Calma 8 Sudeste 0 1000 1.5 47
2017-08-07 08:00:00 23 5 Oeste 42 Noroeste 0 999.2 0.1 43
2017-08-07 07:00:00 22 18 Sudeste 22 Sudeste 0 997.7 -1 45
2017-08-07 06:00:00 22.7 3 Sudoeste 12 Sudoeste 0 998.5 -1.3 43
2017-08-07 05:00:00 22.8 3 Sudoeste 14 Noroeste 0 999.1 -0.3 44
2017-08-07 04:00:00 23.3 12 Sudeste 17 Sudeste 0 998.7 -0.9 44
2017-08-07 03:00:00 26.6 8 Sudoeste 16 Sudoeste 0 999.8 0.8 37
2017-08-07 02:00:00 25.9 3 Sudeste 20 Sudoeste 0 999.4 0.9 38
2017-08-07 01:00:00 28.4 14 Sudoeste 31 Oeste 0 999.6 1.9 33
2017-08-07 00:00:00 29.6 25 Oeste 38 Sudoeste 0 999 2.2 36
2017-08-06 23:00:00 30.9 23 Sudoeste 33 Sudoeste 0 998.5 2 35
2017-08-06 22:00:00 33.6 20 Oeste 35 Oeste 0 997.7 1.1 33
2017-08-06 21:00:00 36.4 19 Sudoeste 28 Sudoeste 0 996.8 0.2 28
2017-08-06 20:00:00 39.7 15 Oeste 27 Oeste 0 996.5 -0.5 26
2017-08-06 19:00:00 40.4 14 Oeste 30 Oeste 0 996.6 -0.8 25
2017-08-06 18:00:00 40.7 16 Oeste 40 Sudoeste 0 996.6 -1.3 24
2017-08-06 17:00:00 40.8 10 Oeste 28 Sudoeste 0 997 -1.5 26
2017-08-06 16:00:00 40 6 Sudoeste 24 Oeste 0 997.4 -1.7 30
2017-08-06 15:00:00 39.2 8 Oeste 22 Oeste 0 997.9 -1.7 29
2017-08-06 14:00:00 37.4 3 Noroeste 15 Oeste 0 998.5 -1.2 34
2017-08-06 13:00:00 35.2 4 Este 13 Nordeste 0 999.1 -0.6 41
2017-08-06 12:00:00 33.1 3 Sudeste 8 Sur 0 999.6 0 46
2017-08-06 11:00:00 30.7 0 Calma 6 Nordeste 0 999.7 0.3 48
2017-08-06 10:00:00 26.7 4 Sudeste 6 Sudeste 0 999.7 0.9 58
2017-08-06 09:00:00 22.7 0 Calma 6 Sudeste 0 999.6 1.1 67
2017-08-06 08:00:00 19.6 5 Sudeste 7 Sudeste 0 999.4 0.9 66
2017-08-06 07:00:00 21 3 Sudeste 5 Sudeste 0 998.8 0.4 59
2017-08-06 06:00:00 21.1 3 Sudeste 8 Sudeste 0 998.5 0.1 59
2017-08-06 05:00:00 24.2 0 Calma 14 Oeste 0 998.5 0 53
2017-08-06 04:00:00 25.7 8 Oeste 20 Oeste 0 998.4 -0.1 48
2017-08-06 03:00:00 26.5 0 Calma 19 Oeste 0 998.4 0.3 49
2017-08-06 02:00:00 28.3 13 Oeste 29 Oeste 0 998.5 0.7 45
2017-08-06 01:00:00 29.7 24 Sudoeste 35 Sudoeste 0 998.5 1.7 45
2017-08-06 00:00:00 30.3 26 Sudoeste 37 Sudoeste 0 998.1 2 45
2017-08-05 23:00:00 29.7 17 Sudoeste 25 Oeste 0 997.8 2 45
2017-08-05 22:00:00 33.1 17 Sudoeste 31 Sudoeste 0 996.8 1.1 39
2017-08-05 21:00:00 36.6 21 Sudoeste 39 Oeste 0 996.1 0.2 34
2017-08-05 20:00:00 39.5 20 Oeste 36 Oeste 0 995.8 -0.5 31
2017-08-05 19:00:00 40.3 22 Sudoeste 35 Sudoeste 0 995.7 -1.4 30
2017-08-05 18:00:00 40.9 17 Oeste 33 Oeste 0 995.9 -1.9 32
2017-08-05 17:00:00 40.9 18 Sudoeste 32 Sudoeste 0 996.3 -2.1 33
2017-08-05 16:00:00 40.7 14 Oeste 31 Oeste 0 997.1 -1.9 34
2017-08-05 15:00:00 39.6 18 Sudoeste 33 Sudoeste 0 997.8 -1.5 36
2017-08-05 14:00:00 38.8 16 Sudoeste 29 Oeste 0 998.4 -0.9 38
2017-08-05 13:00:00 36.4 12 Sudoeste 24 Sudoeste 0 999 -0.3 42
2017-08-05 12:00:00 34.6 6 Sur 14 Sudoeste 0 999.3 0.4 45
2017-08-05 11:00:00 33.1 0 Calma 5 Sudeste 0 999.3 0.8 46
2017-08-05 10:00:00 31.1 0 Calma 3 Sudeste 0 999.3 1 48
2017-08-05 09:00:00 26.8 0 Calma 3 Sur 0 998.9 0.8 53
2017-08-05 08:00:00 23.8 0 Calma 4 Sudoeste 0 998.5 0.4 53
2017-08-05 07:00:00 24 3 Sur 5 Sudeste 0 998.3 0 52
2017-08-05 06:00:00 25.3 3 Sur 5 Sur 0 998.1 -0.4 50
2017-08-05 05:00:00 26.1 0 Calma 5 Sudeste 0 998.1 -0.1 50
2017-08-05 04:00:00 26.9 2 Sur 15 Sudoeste 0 998.3 0.1 49
2017-08-05 03:00:00 27.9 3 Sur 8 Sudoeste 0 998.5 0.4 48
2017-08-05 02:00:00 29.5 9 Sudoeste 21 Sudoeste 0 998.2 0.7 47
2017-08-05 01:00:00 29.5 11 Sudoeste 21 Sudoeste 0 998.2 1.3 48
2017-08-05 00:00:00 30.8 14 Sudoeste 27 Oeste 0 998.1 2 45
2017-08-04 23:00:00 35.2 18 Oeste 29 Oeste 0 997.5 1.6 36
2017-08-04 22:00:00 36.5 15 Oeste 27 Oeste 0 996.9 0.8 35
2017-08-04 21:00:00 37.7 9 Sudoeste 16 Sudoeste 0 996.1 -0.4 33
2017-08-04 20:00:00 41 2 Norte 14 Sudoeste 0 995.9 -1.1 31
2017-08-04 19:00:00 42.1 4 Sudoeste 15 Noroeste 0 996.1 -1.6 30
2017-08-04 18:00:00 41.6 5 Norte 19 Norte 0 996.5 -2.1 30
2017-08-04 17:00:00 41.4 6 Norte 19 Norte 0 997 -2.4 30
2017-08-04 16:00:00 40.9 5 Nordeste 18 Noroeste 0 997.7 -2.2 30
2017-08-04 15:00:00 40 8 Nordeste 15 Nordeste 0 998.6 -2 31
2017-08-04 14:00:00 39 2 Sudeste 13 Nordeste 0 999.4 -1.4 33
2017-08-04 13:00:00 36.2 6 Sudeste 15 Este 0 999.9 -0.8 38
2017-08-04 12:00:00 34 5 Sudeste 15 Sudeste 0 1000.6 0.1 39
2017-08-04 11:00:00 30.9 3 Este 6 Este 0 1000.8 0.4 42
2017-08-04 10:00:00 26.5 0 Calma 5 Sudeste 0 1000.7 0.6 46
2017-08-04 09:00:00 22.8 3 Sudeste 6 Sur 0 1000.5 0.6 53
2017-08-04 08:00:00 19.7 4 Sudeste 7 Sudeste 0 1000.4 0.6 53
2017-08-04 07:00:00 20.1 0 Calma 7 Sudeste 0 1000.1 0.4 51
2017-08-04 06:00:00 20.9 4 Sudeste 6 Sur 0 999.9 0.4 50
2017-08-04 05:00:00 21.3 4 Sudeste 6 Sur 0 999.8 0 49
2017-08-04 04:00:00 22.6 0 Calma 6 Sudeste 0 999.7 -0.2 46
2017-08-04 03:00:00 23.3 5 Sudeste 8 Sudeste 0 999.5 -0.2 44
2017-08-04 02:00:00 26.2 0 Calma 10 Oeste 0 999.8 0.5 38
2017-08-04 01:00:00 28.4 0 Calma 21 Oeste 0 999.9 1.2 36
2017-08-04 00:00:00 30.2 17 Oeste 24 Oeste 0 999.7 1.3 33
2017-08-03 23:00:00 32 18 Oeste 24 Oeste 0 999.3 1.2 30
2017-08-03 22:00:00 33.3 10 Noroeste 16 Oeste 0 998.7 0.5 29
2017-08-03 21:00:00 37.5 9 Oeste 18 Oeste 0 998.4 -0.4 27
2017-08-03 20:00:00 39.7 6 Noroeste 22 Noroeste 0 998.1 -1.1 27
2017-08-03 19:00:00 40.2 7 Norte 23 Norte 0 998.2 -1.7 27
2017-08-03 18:00:00 40 9 Noroeste 17 Noroeste 0 998.8 -1.5 27
2017-08-03 17:00:00 39.6 6 Nordeste 20 Noroeste 0 999.2 -2 28
2017-08-03 16:00:00 38.9 5 Nordeste 15 Nordeste 0 999.9 -2.1 30
2017-08-03 15:00:00 37.8 4 Norte 17 Este 0 1000.3 -2.3 31
2017-08-03 14:00:00 35.9 0 Calma 14 Noroeste 0 1001.2 -1.6 34
2017-08-03 13:00:00 33.7 5 Este 15 Sudeste 0 1002 -0.9 38
2017-08-03 12:00:00 31.6 4 Sudeste 10 Sudeste 0 1002.6 0.1 42
2017-08-03 11:00:00 28.7 3 Este 8 Este 0 1002.8 0.4 45
2017-08-03 10:00:00 26.1 2 Este 5 Este 0 1002.9 0.7 49
2017-08-03 09:00:00 21.5 0 Calma 7 Sudoeste 0 1002.5 0.4 55
2017-08-03 08:00:00 18 3 Sudeste 7 Sudeste 0 1002.4 0.4 57
2017-08-03 07:00:00 18.1 0 Calma 6 Sur 0 1002.2 0.3 55
2017-08-03 06:00:00 19 3 Sudeste 7 Sur 0 1002.1 0.2 52
2017-08-03 05:00:00 20.3 3 Sudoeste 6 Sudeste 0 1002 0.1 50
2017-08-03 04:00:00 21.6 3 Sudeste 9 Sur 0 1001.9 0 47
2017-08-03 03:00:00 23.8 0 Calma 9 Sur 0 1001.9 0.6 45
2017-08-03 02:00:00 23.2 5 Sur 12 Sudoeste 0 1001.9 1 47
2017-08-03 01:00:00 25.3 5 Sudeste 19 Sudoeste 0 1001.9 2.1 44
2017-08-03 00:00:00 28.1 11 Sudoeste 32 Oeste 0 1001.3 2.2 41
2017-08-02 23:00:00 30 19 Oeste 31 Oeste 0 1000.9 2 36
2017-08-02 22:00:00 31.1 11 Oeste 18 Oeste 0 999.8 0.8 30
2017-08-02 21:00:00 34.6 12 Sudoeste 18 Oeste 0 999.1 -0.2 28
2017-08-02 20:00:00 37.3 7 Oeste 18 Oeste 0 998.9 -0.6 28
2017-08-02 19:00:00 37.4 4 Sudoeste 22 Oeste 0 999 -1 28
2017-08-02 18:00:00 37.1 8 Sudoeste 24 Oeste 0 999.3 -1.3 30
2017-08-02 17:00:00 37 6 Sur 17 Norte 0 999.5 -1.5 32
2017-08-02 16:00:00 36 7 Norte 28 Noroeste 0 1000 -1.6 33
2017-08-02 15:00:00 34.9 7 Noroeste 15 Noroeste 0 1000.6 -1.3 35
2017-08-02 14:00:00 33.7 2 Nordeste 13 Norte 0 1001 -1.1 39
2017-08-02 13:00:00 31.4 3 Este 11 Nordeste 0 1001.6 -0.3 44
2017-08-02 12:00:00 29.1 3 Nordeste 11 Nordeste 0 1001.9 0 49
2017-08-02 11:00:00 26.6 2 Sur 6 Este 0 1002.1 0.4 55
2017-08-02 10:00:00 23 0 Calma 7 Sudeste 0 1001.9 0.6 60
2017-08-02 09:00:00 19.6 5 Sudeste 7 Sudeste 0 1001.9 0.8 67
2017-08-02 08:00:00 17.1 0 Calma 3 Sudoeste 0 1001.7 0.4 70
2017-08-02 07:00:00 16.3 0 Calma 6 Sudeste 0 1001.3 -0.3 69
2017-08-02 06:00:00 17.2 0 Calma 9 Sudeste 0 1001.1 -0.8 65
2017-08-02 05:00:00 18.3 0 Calma 4 Sudeste 0 1001.3 -0.6 64
2017-08-02 04:00:00 18.8 0 Calma 11 Sudeste 0 1001.6 -0.3 61
2017-08-02 03:00:00 20.3 6 Sur 11 Sudoeste 0 1001.9 0.5 59
2017-08-02 02:00:00 21.7 2 Sur 12 Sudoeste 0 1001.9 1.1 56
2017-08-02 01:00:00 23.4 4 Norte 27 Oeste 0 1001.9 2 55
2017-08-02 00:00:00 24.6 19 Sudoeste 31 Oeste 0 1001.4 2.4 52
2017-08-01 23:00:00 26.5 15 Oeste 26 Oeste 0 1000.8 2.2 44
2017-08-01 22:00:00 28 14 Sudoeste 21 Sudoeste 0 999.9 1.4 39
2017-08-01 21:00:00 30.6 14 Sudoeste 24 Sudoeste 0 999 0.5 38
2017-08-01 20:00:00 32.9 10 Oeste 26 Oeste 0 998.6 -0.2 36
2017-08-01 19:00:00 31.8 13 Oeste 21 Sudoeste 0 998.5 -0.6 38
2017-08-01 18:00:00 32.3 9 Oeste 20 Oeste 0 998.5 -0.8 37
2017-08-01 17:00:00 32 11 Oeste 24 Oeste 0 998.8 -0.3 39
2017-08-01 16:00:00 30.6 14 Oeste 30 Oeste 0 999.1 -0.3 45
2017-08-01 15:00:00 30.3 11 Oeste 24 Noroeste 0 999.3 -0.1 46
2017-08-01 14:00:00 29 8 Sudoeste 23 Noroeste 0 999.1 -0.7 51
2017-08-01 13:00:00 27.7 11 Oeste 20 Sudoeste 0 999.4 0.4 54
2017-08-01 12:00:00 26.8 3 Norte 31 Oeste 0 999.4 1.1 55
2017-08-01 11:00:00 26.2 7 Oeste 22 Oeste 0 999.8 1.7 58
2017-08-01 10:00:00 24 6 Sur 10 Sudeste 0 999 1 63
2017-08-01 09:00:00 21.3 5 Sudeste 9 Sudeste 0 998.3 1.1 67
2017-08-01 08:00:00 19 0 Calma 8 Sudeste 0 998.1 1 65
2017-08-01 07:00:00 18.9 4 Sudeste 8 Sudeste 0 998 0.6 63
2017-08-01 06:00:00 20 4 Sudeste 12 Sudeste 0 997.2 -0.2 60
2017-08-01 05:00:00 21 0 Calma 10 Sudoeste 0 997.1 0.2 58
2017-08-01 04:00:00 21.3 3 Sudeste 21 Sudoeste 0 997.4 0.8 55
2017-08-01 03:00:00 22.6 10 Sudoeste 21 Sudoeste 0 997.4 1.1 53
2017-08-01 02:00:00 23.1 14 Sudoeste 28 Sudoeste 0 996.9 0.7 52
2017-08-01 01:00:00 23.2 18 Sudoeste 40 Sudoeste 0 996.6 1.6 53
2017-08-01 00:00:00 23.8 26 Sudoeste 42 Sudoeste 0 996.3 2.3 54
2017-07-31 23:00:00 25.5 30 Sudoeste 40 Sudoeste 0 996.2 2.9 48
2017-07-31 22:00:00 28.1 24 Sudoeste 36 Oeste 0 995 1.8 38
2017-07-31 21:00:00 31.4 20 Oeste 35 Oeste 0 994 0.5 35
2017-07-31 20:00:00 34.6 18 Oeste 32 Oeste 0 993.3 -0.3 34
2017-07-31 19:00:00 35.1 16 Oeste 33 Oeste 0 993.2 -1.2 35
2017-07-31 18:00:00 36 17 Oeste 33 Oeste 0 993.5 -1.4 36
2017-07-31 17:00:00 35.9 16 Oeste 31 Oeste 0 993.6 -1.9 36
2017-07-31 16:00:00 35.7 13 Oeste 30 Oeste 0 994.4 -1.4 37
2017-07-31 15:00:00 35.5 10 Sudoeste 25 Sudoeste 0 994.9 -1.5 38
2017-07-31 14:00:00 33.5 9 Oeste 19 Oeste 0 995.5 -0.5 39
2017-07-31 13:00:00 31.9 7 Noroeste 19 Sudoeste 0 995.8 -0.5 43
2017-07-31 12:00:00 30.2 9 Oeste 17 Sudoeste 0 996.4 0.2 47
2017-07-31 11:00:00 28.2 3 Noroeste 11 Norte 0 996 0.4 51
2017-07-31 10:00:00 25.7 4 Sudeste 8 Sudeste 0 996.3 0.9 59
2017-07-31 09:00:00 22.5 0 Calma 7 Sudeste 0 996.2 1.1 64
2017-07-31 08:00:00 18.5 6 Sudeste 9 Sudeste 0 995.6 0.4 65
2017-07-31 07:00:00 20 0 Calma 11 Sudoeste 0 995.4 0.1 59
2017-07-31 06:00:00 21.8 5 Oeste 18 Oeste 0 995.1 -0.5 55
2017-07-31 05:00:00 23.9 12 Oeste 24 Oeste 0 995.2 -0.8 51
2017-07-31 04:00:00 24.5 15 Oeste 26 Oeste 0 995.3 -0.6 49
2017-07-31 03:00:00 25.3 16 Sudoeste 22 Oeste 0 995.6 -0.1 48
2017-07-31 02:00:00 26 10 Sudoeste 21 Sudoeste 0 996 0.7 47
2017-07-31 01:00:00 26.3 3 Sudeste 27 Sudoeste 0 995.9 1.3 45
2017-07-31 00:00:00 27.8 21 Sudoeste 33 Sudoeste 0 995.7 1.8 45
2017-07-30 23:00:00 29.3 20 Sudoeste 37 Sudoeste 0 995.3 1.6 44
2017-07-30 22:00:00 31.9 19 Sudoeste 30 Oeste 0 994.6 0.6 44
2017-07-30 21:00:00 34.8 19 Sudoeste 27 Sudoeste 0 993.9 -0.6 37
2017-07-30 20:00:00 38 14 Oeste 27 Oeste 0 993.7 -1.3 31
2017-07-30 19:00:00 38.4 18 Oeste 33 Sudoeste 0 994 -1.6 31
2017-07-30 18:00:00 38.7 17 Sudoeste 33 Sudoeste 0 994.5 -1.7 33
2017-07-30 17:00:00 38.8 18 Sudoeste 31 Sudoeste 0 995 -1.9 32
2017-07-30 16:00:00 38.9 16 Oeste 29 Sudoeste 0 995.6 -1.7 33
2017-07-30 15:00:00 37.9 14 Oeste 26 Oeste 0 996.2 -1.6 33
2017-07-30 14:00:00 37 12 Oeste 26 Sudoeste 0 996.9 -1.2 36
2017-07-30 13:00:00 36.1 4 Oeste 18 Oeste 0 997.3 -1 37
2017-07-30 12:00:00 33.9 3 Este 10 Este 0 997.8 -0.6 37
2017-07-30 11:00:00 31 0 Calma 6 Sudeste 0 998.1 -0.3 41
2017-07-30 10:00:00 26.9 0 Calma 10 Sudeste 0 998.3 -0.1 48
2017-07-30 09:00:00 23 4 Sudeste 10 Sur 0 998.4 -0.1 53
2017-07-30 08:00:00 20 2 Sur 6 Sur 0 998.4 -0.3 57
2017-07-30 07:00:00 20.4 3 Este 6 Sudeste 0 998.4 -0.3 53
2017-07-30 06:00:00 21.7 2 Sudeste 5 Sur 0 998.5 -0.5 52
2017-07-30 05:00:00 22.1 4 Sur 8 Sur 0 998.7 -0.7 53
2017-07-30 04:00:00 23.4 0 Calma 3 Sur 0 998.7 -1.1 50
2017-07-30 03:00:00 24.1 0 Calma 12 Sudoeste 0 999 -0.4 51
2017-07-30 02:00:00 25.9 9 Sudoeste 16 Sudoeste 0 999.4 0.3 50
2017-07-30 01:00:00 26.4 6 Sur 21 Sudoeste 0 999.8 1.2 49
2017-07-30 00:00:00 29.1 17 Sudoeste 30 Oeste 0 999.4 1.3 43
2017-07-29 23:00:00 30.9 19 Sudoeste 27 Sudoeste 0 999.1 1.4 33
2017-07-29 22:00:00 32.9 15 Oeste 26 Oeste 0 998.6 0.8 29
2017-07-29 21:00:00 35.8 20 Sudoeste 29 Sudoeste 0 998.1 -0.3 27
2017-07-29 20:00:00 39.1 14 Oeste 26 Sudoeste 0 997.7 -1.1 24
2017-07-29 19:00:00 39.9 15 Oeste 28 Sudoeste 0 997.8 -1.4 24
2017-07-29 18:00:00 39.4 18 Oeste 32 Noroeste 0 998.4 -1.3 27
2017-07-29 17:00:00 39.6 15 Oeste 31 Sudoeste 0 998.8 -1.5 27
2017-07-29 16:00:00 39.3 12 Oeste 26 Oeste 0 999.2 -1.6 27
2017-07-29 15:00:00 38.7 8 Oeste 23 Oeste 0 999.7 -1.5 30
2017-07-29 14:00:00 37.4 5 Noroeste 19 Noroeste 0 1000.3 -1 32
2017-07-29 13:00:00 35.1 4 Nordeste 12 Nordeste 0 1000.8 -0.6 36
2017-07-29 12:00:00 32.7 3 Nordeste 9 Norte 0 1001.2 -0.3 39
2017-07-29 11:00:00 29.8 2 Sur 6 Sudeste 0 1001.3 0.3 44
2017-07-29 10:00:00 25.5 4 Sudeste 7 Sudeste 0 1001.4 0.6 49
2017-07-29 09:00:00 21.4 3 Sudeste 5 Sudeste 0 1001.5 1.1 55
2017-07-29 08:00:00 18.1 0 Calma 6 Sur 0 1001 0.7 57
2017-07-29 07:00:00 18.6 0 Calma 5 Sudeste 0 1000.8 0.8 54
2017-07-29 06:00:00 19 3 Sur 7 Sudeste 0 1000.4 0.3 54
2017-07-29 05:00:00 20 3 Sur 8 Sur 0 1000.3 0 50
2017-07-29 04:00:00 21 4 Sudeste 9 Sudeste 0 1000 -0.5 47
2017-07-29 03:00:00 22.7 0 Calma 14 Sudoeste 0 1000.1 0.1 44
2017-07-29 02:00:00 23.9 7 Sur 15 Sudoeste 0 1000.3 0.9 46
2017-07-29 01:00:00 25.4 6 Sur 15 Sudoeste 0 1000.5 1.9 45
2017-07-29 00:00:00 28.4 12 Sudoeste 34 Oeste 0 1000 2.1 41
2017-07-28 23:00:00 30.9 21 Oeste 33 Oeste 0 999.4 1.7 33
2017-07-28 22:00:00 33.2 14 Oeste 26 Sudoeste 0 998.6 1 28
2017-07-28 21:00:00 36.3 14 Sudoeste 24 Sudoeste 0 997.9 0.1 27
2017-07-28 20:00:00 38.6 15 Sudoeste 30 Oeste 0 997.7 -0.4 25
2017-07-28 19:00:00 39.6 14 Oeste 29 Oeste 0 997.6 -1.1 26
2017-07-28 18:00:00 39.9 12 Oeste 26 Oeste 0 997.8 -1.3 25
2017-07-28 17:00:00 39.5 7 Oeste 22 Sudoeste 0 998.1 -1.4 27
2017-07-28 16:00:00 39.6 3 Noroeste 26 Sudoeste 0 998.7 -1.5 27
2017-07-28 15:00:00 38.4 7 Noroeste 19 Oeste 0 999.1 -1.3 29
2017-07-28 14:00:00 37.9 2 Sudeste 12 Norte 0 999.5 -1.2 33
2017-07-28 13:00:00 36.4 2 Sur 5 Este 0 1000.2 -0.5 37
2017-07-28 12:00:00 33.3 0 Calma 6 Nordeste 0 1000.4 0 40
2017-07-28 11:00:00 29.5 2 Nordeste 9 Nordeste 0 1000.7 0.4 46
2017-07-28 10:00:00 25.8 2 Sudeste 5 Sudeste 0 1000.7 0.8 53
2017-07-28 09:00:00 22.3 3 Sudeste 5 Sudeste 0 1000.4 0.7 58
2017-07-28 08:00:00 19.8 0 Calma 5 Sur 0 1000.3 0.8 60
2017-07-28 07:00:00 19.1 4 Sur 6 Sudeste 0 999.9 0.3 59
2017-07-28 06:00:00 20.2 3 Sur 7 Sudeste 0 999.7 0.4 55
2017-07-28 05:00:00 21.8 0 Calma 5 Sur 0 999.5 0.4 50
2017-07-28 04:00:00 22.7 0 Calma 6 Oeste 0 999.6 0.5 49
2017-07-28 03:00:00 24 0 Calma 7 Nordeste 0 999.3 0.8 47
2017-07-28 02:00:00 24.9 5 Este 11 Sudoeste 0 999.1 1.1 48
2017-07-28 01:00:00 26.9 3 Sudoeste 15 Sudoeste 0 999.1 1.6 46
2017-07-28 00:00:00 28.5 12 Sudoeste 28 Oeste 0 998.5 1.8 44
2017-07-27 23:00:00 30.4 16 Oeste 26 Sudoeste 0 998 1.5 42
2017-07-27 22:00:00 32.6 15 Oeste 27 Sudoeste 0 997.5 0.8 37
2017-07-27 21:00:00 35.7 11 Oeste 23 Sudoeste 0 996.7 -0.2 32
2017-07-27 20:00:00 38 10 Oeste 23 Oeste 0 996.5 -0.8 30
2017-07-27 19:00:00 38.6 11 Oeste 27 Oeste 0 996.7 -1.2 30
2017-07-27 18:00:00 39 10 Oeste 32 Oeste 0 996.9 -1.6 30
2017-07-27 17:00:00 38.6 5 Oeste 24 Oeste 0 997.3 -1.8 32
2017-07-27 16:00:00 38.4 10 Oeste 24 Oeste 0 997.9 -1.7 33
2017-07-27 15:00:00 37 8 Oeste 21 Oeste 0 998.5 -1.8 36
2017-07-27 14:00:00 35.6 5 Oeste 23 Oeste 0 999.1 -1.2 40
2017-07-27 13:00:00 34.3 2 Sudoeste 11 Sudoeste 0 999.6 -1 47
2017-07-27 12:00:00 31.7 0 Calma 9 Oeste 0 1000.3 0.2 52
2017-07-27 11:00:00 29.3 0 Calma 6 Este 0 1000.3 0.5 57
2017-07-27 10:00:00 26.4 3 Sur 5 Sudeste 0 1000.6 1.1 64
2017-07-27 09:00:00 23 0 Calma 4 Sudeste 0 1000.1 1.1 70
2017-07-27 08:00:00 20.7 0 Calma 6 Noroeste 0 999.8 1 68
2017-07-27 07:00:00 20.8 4 Noroeste 8 Noroeste 0 999.5 0.5 67
2017-07-27 06:00:00 21.4 3 Oeste 11 Sudoeste 0 999 0 66
2017-07-27 05:00:00 22.3 8 Sudoeste 15 Sur 0 998.8 -0.3 67
2017-07-27 04:00:00 21.7 5 Sudoeste 9 Sudoeste 0 999 0.1 69
2017-07-27 03:00:00 23.2 0 Calma 4 Sur 0 999 0.4 65
2017-07-27 02:00:00 24.6 4 Este 8 Sur 0 999.1 0.9 61
2017-07-27 01:00:00 26.6 2 Sur 20 Sudoeste 0 998.9 1.3 58
2017-07-27 00:00:00 28.3 17 Sudoeste 28 Oeste 0 998.6 1.3 54
2017-07-26 23:00:00 30 18 Oeste 27 Oeste 0 998.2 1.3 48
2017-07-26 22:00:00 31.5 13 Oeste 22 Oeste 0 997.6 0.5 41
2017-07-26 21:00:00 33.6 8 Oeste 19 Oeste 0 997.3 0.1 36
2017-07-26 20:00:00 35.4 9 Oeste 19 Oeste 0 996.9 -0.9 36
2017-07-26 19:00:00 35.8 10 Noroeste 22 Noroeste 0 997.1 -1.2 36
2017-07-26 18:00:00 35 9 Nordeste 17 Noroeste 0 997.2 -1.6 41
2017-07-26 17:00:00 34.8 9 Norte 21 Noroeste 0 997.8 -1.8 40
2017-07-26 16:00:00 34 5 Noroeste 36 Nordeste 0 998.3 -1.8 42
2017-07-26 15:00:00 33.1 7 Noroeste 17 Noroeste 0 998.8 -1.5 44
2017-07-26 14:00:00 31.6 3 Noroeste 18 Oeste 0 999.6 -0.4 46
2017-07-26 13:00:00 29.8 4 Norte 19 Oeste 0 1000.1 0.2 51
2017-07-26 12:00:00 28.7 5 Noroeste 14 Noroeste 0 1000.3 0.8 55
2017-07-26 11:00:00 26.9 2 Oeste 11 Noroeste 0 1000 1.1 60
2017-07-26 10:00:00 25 0 Calma 4 Este 0 999.9 1.3 66
2017-07-26 09:00:00 22 0 Calma 4 Oeste 0 999.5 1.1 73
2017-07-26 08:00:00 19.5 0 Calma 4 Noroeste 0 998.9 0.6 74
2017-07-26 07:00:00 18.7 0 Calma 4 Oeste 0 998.6 0.2 76
2017-07-26 06:00:00 19.4 0 Calma 5 Sudeste 0 998.4 -0.2 74
2017-07-26 05:00:00 20.2 0 Calma 8 Sudoeste 0 998.3 0 70
2017-07-26 04:00:00 21 6 Sudoeste 11 Sudoeste 0 998.4 0.3 71
2017-07-26 03:00:00 22.7 0 Calma 13 Sudoeste 0 998.6 0.9 61
2017-07-26 02:00:00 23.8 6 Sudoeste 32 Sudoeste 0 998.3 1.3 57
2017-07-26 01:00:00 25.1 14 Sudoeste 31 Oeste 0 998.1 2 55
2017-07-26 00:00:00 26.3 15 Oeste 27 Oeste 0 997.7 2.2 56
2017-07-25 23:00:00 28.6 13 Oeste 27 Sudoeste 0 997 2.2 48
2017-07-25 22:00:00 30.4 19 Sudoeste 34 Sudoeste 0 996.1 1.4 42
2017-07-25 21:00:00 32.8 17 Oeste 40 Oeste 0 995.5 0.3 38
2017-07-25 20:00:00 35.6 26 Sudoeste 39 Sudoeste 0 994.8 -0.8 34
2017-07-25 19:00:00 37.6 19 Oeste 35 Sudoeste 0 994.7 -1.4 30
2017-07-25 18:00:00 38.4 13 Oeste 27 Oeste 0 995.2 -1.7 29
2017-07-25 17:00:00 38 13 Oeste 28 Oeste 0 995.6 -2.2 29
2017-07-25 16:00:00 37.5 13 Noroeste 27 Noroeste 0 996.1 -2.4 30
2017-07-25 15:00:00 36.8 6 Noroeste 25 Oeste 0 996.9 -1.9 33
2017-07-25 14:00:00 35.4 3 Nordeste 14 Sur 0 997.8 -1.2 38
2017-07-25 13:00:00 33.1 5 Este 11 Este 0 998.5 -0.8 43
2017-07-25 12:00:00 31.3 3 Este 10 Este 0 998.8 -0.3 46
2017-07-25 11:00:00 29.1 3 Sudeste 6 Sur 0 999 0 52
2017-07-25 10:00:00 25.5 2 Sudeste 5 Sudeste 0 999.3 0.5 57
2017-07-25 09:00:00 21.9 3 Sudeste 5 Sudeste 0 999.1 0.4 64
2017-07-25 08:00:00 19.2 3 Sudeste 6 Sur 0 999 0.2 68
2017-07-25 07:00:00 19.2 0 Calma 6 Sur 0 998.8 -0.6 64
2017-07-25 06:00:00 20.1 0 Calma 3 Sudeste 0 998.7 -0.8 62
2017-07-25 05:00:00 21.6 0 Calma 5 Sudeste 0 998.8 -0.8 59
2017-07-25 04:00:00 22.3 0 Calma 6 Sudoeste 0 999.4 -0.2 57
2017-07-25 03:00:00 24.1 0 Calma 10 Noroeste 0 999.5 -0.1 53
2017-07-25 02:00:00 25.3 0 Calma 17 Sudoeste 0 999.6 0.2 51
2017-07-25 01:00:00 26.7 10 Sudoeste 31 Sudoeste 0 999.6 0.7 49
2017-07-25 00:00:00 27.8 18 Sudoeste 31 Oeste 0 999.6 1.1 45
2017-07-24 23:00:00 30.1 20 Oeste 33 Oeste 0 999.4 1.1 38
2017-07-24 22:00:00 32.4 19 Oeste 33 Oeste 0 998.9 0.4 36
2017-07-24 21:00:00 35.4 19 Oeste 35 Oeste 0 998.5 -0.3 32
2017-07-24 20:00:00 37.9 13 Noroeste 31 Oeste 0 998.3 -1.2 28
2017-07-24 19:00:00 38.2 16 Noroeste 32 Oeste 0 998.5 -1.6 29
2017-07-24 18:00:00 38.1 8 Noroeste 26 Noroeste 0 998.8 -2.1 30
2017-07-24 17:00:00 37.4 5 Nordeste 27 Noroeste 0 999.5 -2 31
2017-07-24 16:00:00 37 10 Noroeste 49 Noroeste 0 1000.1 -2 32
2017-07-24 15:00:00 36.2 10 Oeste 29 Noroeste 0 1000.9 -1.9 33
2017-07-24 14:00:00 35.1 3 Noroeste 13 Oeste 0 1001.5 -1.8 36
2017-07-24 13:00:00 32.6 5 Este 9 Sur 0 1002.1 -1.3 41
2017-07-24 12:00:00 30.7 2 Nordeste 13 Este 0 1002.8 -0.6 45
2017-07-24 11:00:00 28.7 2 Este 7 Sudeste 0 1003.3 0 48
2017-07-24 10:00:00 24.6 3 Sudeste 6 Sudeste 0 1003.4 0.8 53
2017-07-24 09:00:00 21.8 0 Calma 6 Sur 0 1003.4 0.9 57
2017-07-24 08:00:00 18.2 2 Sur 7 Sudeste 0 1003.3 0.7 63
2017-07-24 07:00:00 17.8 0 Calma 5 Sudeste 0 1002.6 -0.1 60
2017-07-24 06:00:00 19 0 Calma 5 Sur 0 1002.5 -0.4 56
2017-07-24 05:00:00 19.3 3 Sur 9 Sudeste 0 1002.6 -0.2 55
2017-07-24 04:00:00 21.5 0 Calma 9 Sudeste 0 1002.7 0 51
2017-07-24 03:00:00 23.2 0 Calma 21 Sudoeste 0 1002.9 0.4 47
2017-07-24 02:00:00 24.1 3 Sudoeste 28 Sudoeste 0 1002.8 1 47
2017-07-24 01:00:00 24.8 19 Sudoeste 30 Sudoeste 0 1002.7 1.9 44
2017-07-24 00:00:00 26.8 17 Sudoeste 32 Oeste 0 1002.5 2.5 38
2017-07-23 23:00:00 28.6 18 Oeste 32 Oeste 0 1001.8 2.1 36
2017-07-23 22:00:00 30.9 21 Oeste 36 Oeste 0 1000.8 1.1 35
2017-07-23 21:00:00 34.5 13 Oeste 22 Oeste 0 1000 -0.1 25
2017-07-23 20:00:00 36.5 13 Oeste 23 Oeste 0 999.7 -1 24
2017-07-23 19:00:00 36.9 13 Oeste 27 Oeste 0 999.7 -1.7 25
2017-07-23 18:00:00 36.6 10 Noroeste 19 Noroeste 0 1000.1 -1.9 26
2017-07-23 17:00:00 35.7 12 Sudoeste 23 Sudoeste 0 1000.7 -2 30
2017-07-23 16:00:00 35.8 5 Noroeste 18 Sudoeste 0 1001.4 -1.6 31
2017-07-23 15:00:00 34.1 4 Sudoeste 19 Sudoeste 0 1002 -1.3 37
2017-07-23 14:00:00 32.9 6 Noroeste 19 Noroeste 0 1002.7 -0.3 40
2017-07-23 13:00:00 31.2 2 Sur 13 Sudoeste 0 1003 -0.2 48
2017-07-23 12:00:00 29.1 0 Calma 19 Sur 0 1003.3 0.3 54
2017-07-23 11:00:00 26.8 2 Oeste 10 Sudoeste 0 1003 0.5 60
2017-07-23 10:00:00 24 5 Noroeste 9 Noroeste 0 1003.2 1.3 63
2017-07-23 09:00:00 21.1 0 Calma 5 Sudeste 0 1003 1.4 63
2017-07-23 08:00:00 17.6 2 Sudeste 5 Sur 0 1002.5 1.2 70
2017-07-23 07:00:00 17.3 0 Calma 6 Sudeste 0 1001.9 0.9 67
2017-07-23 06:00:00 18.3 3 Sudoeste 8 Sur 0 1001.6 0.2 65
2017-07-23 05:00:00 18.6 3 Oeste 10 Este 0 1001.3 -0.3 62
2017-07-23 04:00:00 19.7 4 Sudoeste 13 Sudoeste 0 1001 -0.1 61
2017-07-23 03:00:00 20.3 2 Este 15 Sudoeste 0 1001.4 1 61
2017-07-23 02:00:00 22.1 12 Sudoeste 22 Sudoeste 0 1001.6 2.1 58
2017-07-23 01:00:00 23.2 18 Sudoeste 33 Sudoeste 0 1001.1 2.5 55
2017-07-23 00:00:00 25 21 Sudoeste 33 Oeste 0 1000.4 2.7 46